Time;durP1;ratioP1;P1;durP2;ratioP2;P2;SDS_P1;SDS_P2;PMS_P1;PMS_P2;Temp;Humidity;BMP_temperature;BMP_pressure;BME280_temperature;BME280_humidity;BME280_pressure;Samples;Min_cycle;Max_cycle;Signal;HPM_P1;HPM_P2
2022/10/23 06:54:36;;;;;;;4.78;1.70;;;;;;;;;;5105276;27;20349;-86
2022/10/23 06:57:23;;;;;;;7.18;1.52;;;;;;;;;;5080463;28;20041;-84
2022/10/23 07:00:09;;;;;;;6.47;2.05;;;;;;;;;;5067613;28;20036;-84
2022/10/23 07:02:55;;;;;;;5.38;2.28;;;;;;;;;;5082706;28;20052;-83
2022/10/23 07:05:43;;;;;;;7.38;2.13;;;;;;;;;;5080063;28;20036;-83
2022/10/23 07:08:29;;;;;;;6.95;2.15;;;;;;;;;;5080797;28;20036;-85
2022/10/23 07:11:15;;;;;;;10.98;4.85;;;;;;;;;;5040569;28;20037;-85
2022/10/23 07:14:01;;;;;;;146.30;77.18;;;;;;;;;;5079868;28;20029;-85
2022/10/23 07:16:46;;;;;;;387.48;203.85;;;;;;;;;;5054039;28;20032;-84
2022/10/23 07:19:32;;;;;;;247.98;130.02;;;;;;;;;;5039900;28;20021;-84
2022/10/23 07:22:18;;;;;;;360.55;190.57;;;;;;;;;;5053864;28;20116;-84
2022/10/23 07:25:06;;;;;;;822.15;517.70;;;;;;;;;;5039150;28;20059;-84
2022/10/23 07:27:54;;;;;;;512.45;313.83;;;;;;;;;;5039579;28;20036;-84
2022/10/23 07:30:42;;;;;;;441.63;252.70;;;;;;;;;;5040026;28;20033;-84
2022/10/23 07:33:28;;;;;;;173.98;91.65;;;;;;;;;;5066858;28;20098;-83
2022/10/23 07:36:14;;;;;;;159.55;86.28;;;;;;;;;;5053833;28;20090;-83
2022/10/23 07:38:59;;;;;;;73.90;39.72;;;;;;;;;;5040034;28;20033;-85
2022/10/23 07:41:45;;;;;;;57.05;30.98;;;;;;;;;;5038399;28;20028;-83
2022/10/23 07:44:31;;;;;;;48.75;27.13;;;;;;;;;;5032117;28;20036;-85
2022/10/23 07:47:20;;;;;;;42.67;23.95;;;;;;;;;;5060376;28;20036;-85
2022/10/23 07:50:06;;;;;;;48.05;23.73;;;;;;;;;;5062693;28;20033;-85
2022/10/23 07:53:14;;;;;;;46.53;22.77;;;;;;;;;;5047158;28;20124;-85
2022/10/23 07:56:16;;;;;;;44.28;23.75;;;;;;;;;;5067900;28;20446;-86
2022/10/23 07:59:02;;;;;;;37.13;21.38;;;;;;;;;;5026145;28;20044;-85
2022/10/23 08:01:49;;;;;;;41.95;22.77;;;;;;;;;;5022695;28;20029;-84
2022/10/23 08:04:15;;;;;;;39.22;22.50;;;;;;;;;;5025489;28;20549;-85
2022/10/23 08:06:41;;;;;;;41.97;21.05;;;;;;;;;;4984351;28;20028;-85
2022/10/23 08:09:06;;;;;;;54.83;35.90;;;;;;;;;;5014627;28;20029;-84
2022/10/23 08:11:34;;;;;;;45.08;28.80;;;;;;;;;;5049205;28;20033;-85
2022/10/23 08:14:01;;;;;;;42.72;26.83;;;;;;;;;;5070316;28;20123;-84
2022/10/23 08:16:27;;;;;;;40.70;24.48;;;;;;;;;;5036236;28;20119;-84
2022/10/23 08:18:52;;;;;;;37.83;24.38;;;;;;;;;;5036502;28;20120;-85
2022/10/23 08:21:18;;;;;;;33.45;21.00;;;;;;;;;;5003347;28;20037;-85
2022/10/23 08:23:43;;;;;;;38.00;23.30;;;;;;;;;;5003196;28;20483;-83
2022/10/23 08:26:10;;;;;;;33.70;19.70;;;;;;;;;;5019937;28;20037;-83
2022/10/23 08:28:35;;;;;;;37.05;21.55;;;;;;;;;;5019546;28;20049;-83
2022/10/23 08:31:08;;;;;;;39.75;21.17;;;;;;;;;;5018294;28;20033;-85
2022/10/23 08:33:34;;;;;;;33.03;20.10;;;;;;;;;;5035618;28;20061;-84
2022/10/23 08:35:59;;;;;;;31.15;19.77;;;;;;;;;;5016448;28;20029;-84
2022/10/23 08:38:25;;;;;;;32.22;18.13;;;;;;;;;;5056770;28;20028;-84
2022/10/23 08:40:51;;;;;;;36.42;19.25;;;;;;;;;;5058290;28;20022;-84
2022/10/23 08:43:38;;;;;;;35.28;18.85;;;;;;;;;;5053241;28;20029;-85
2022/10/23 08:46:06;;;;;;;29.20;17.38;;;;;;;;;;5041861;28;20353;-84
2022/10/23 08:48:35;;;;;;;36.65;20.08;;;;;;;;;;5032465;28;20041;-84
2022/10/23 08:51:12;;;;;;;29.88;18.13;;;;;;;;;;5027482;28;20017;-84
2022/10/23 08:54:09;;;;;;;35.50;18.42;;;;;;;;;;5011045;28;20045;-85
2022/10/23 08:56:37;;;;;;;30.83;17.80;;;;;;;;;;4991288;28;20029;-85
2022/10/23 08:59:31;;;;;;;30.42;18.10;;;;;;;;;;5033889;28;20515;-84
2022/10/23 09:02:02;;;;;;;28.48;17.83;;;;;;;;;;5033396;28;20107;-84
2022/10/23 09:04:28;;;;;;;29.10;17.33;;;;;;;;;;5041267;28;20041;-83
2022/10/23 09:07:04;;;;;;;30.17;16.70;;;;;;;;;;5047926;28;20498;-83
2022/10/23 09:09:37;;;;;;;27.88;16.02;;;;;;;;;;5050601;28;20040;-84
2022/10/23 09:12:14;;;;;;;28.48;16.33;;;;;;;;;;5030854;28;20021;-84
2022/10/23 09:15:01;;;;;;;31.23;15.65;;;;;;;;;;4995673;28;20072;-84
2022/10/23 09:17:28;;;;;;;24.60;14.40;;;;;;;;;;5048084;28;20487;-84
2022/10/23 09:20:10;;;;;;;25.15;14.07;;;;;;;;;;5017433;28;20041;-84
2022/10/23 09:22:35;;;;;;;23.13;13.90;;;;;;;;;;5041121;28;20033;-84
2022/10/23 09:25:01;;;;;;;26.20;15.25;;;;;;;;;;5040069;28;20079;-83
2022/10/23 09:27:26;;;;;;;24.40;14.52;;;;;;;;;;5040094;28;20029;-84
2022/10/23 09:29:52;;;;;;;23.92;13.77;;;;;;;;;;5024783;28;20032;-84
2022/10/23 09:32:18;;;;;;;23.15;13.40;;;;;;;;;;4994672;28;20035;-84
2022/10/23 09:34:52;;;;;;;25.90;14.40;;;;;;;;;;5032976;28;20025;-82
2022/10/23 09:37:23;;;;;;;19.95;12.23;;;;;;;;;;5024362;28;20036;-84
2022/10/23 09:39:58;;;;;;;21.60;13.00;;;;;;;;;;5033159;28;20538;-84
2022/10/23 09:42:24;;;;;;;21.98;11.88;;;;;;;;;;5015374;28;20039;-83
2022/10/23 09:44:51;;;;;;;19.73;12.60;;;;;;;;;;5031755;28;20028;-83
2022/10/23 09:47:19;;;;;;;22.58;12.60;;;;;;;;;;5030167;28;20037;-83
2022/10/23 09:49:49;;;;;;;19.25;11.75;;;;;;;;;;5016538;28;20480;-83
2022/10/23 09:52:15;;;;;;;22.60;12.13;;;;;;;;;;5057416;28;20456;-83
2022/10/23 09:54:55;;;;;;;23.73;11.98;;;;;;;;;;5073049;28;20059;-83
2022/10/23 09:57:41;;;;;;;20.90;11.55;;;;;;;;;;5057688;28;20021;-83
2022/10/23 10:00:12;;;;;;;17.25;10.75;;;;;;;;;;5027546;28;20029;-83
2022/10/23 10:02:38;;;;;;;15.50;9.07;;;;;;;;;;5030763;28;20043;-84
2022/10/23 10:05:23;;;;;;;17.02;10.32;;;;;;;;;;5032718;28;20470;-84
2022/10/23 10:08:13;;;;;;;15.60;9.68;;;;;;;;;;5031750;28;20021;-84
2022/10/23 10:10:41;;;;;;;19.55;10.25;;;;;;;;;;5032500;28;20120;-84
2022/10/23 10:13:32;;;;;;;18.55;10.57;;;;;;;;;;5017476;28;20029;-83
2022/10/23 10:15:59;;;;;;;14.45;8.93;;;;;;;;;;5049714;28;20372;-83
2022/10/23 10:18:34;;;;;;;16.88;9.27;;;;;;;;;;5057310;28;20044;-83
2022/10/23 10:21:03;;;;;;;12.65;8.60;;;;;;;;;;5025538;28;20048;-83
2022/10/23 10:23:40;;;;;;;15.55;9.50;;;;;;;;;;5033317;28;20033;-83
2022/10/23 10:26:43;;;;;;;16.80;8.23;;;;;;;;;;5047600;28;20024;-84
2022/10/23 10:29:29;;;;;;;;;;;;;;;;;;5033817;28;20067;-83
2022/10/23 10:32:10;;;;;;;14.70;8.43;;;;;;;;;;5049000;28;19952;-84
2022/10/23 10:34:41;;;;;;;13.18;7.90;;;;;;;;;;5049763;28;20033;-83
2022/10/23 10:37:30;;;;;;;13.97;7.93;;;;;;;;;;5033333;28;20112;-84
2022/10/23 10:40:20;;;;;;;15.02;8.00;;;;;;;;;;5043615;28;20028;-84
2022/10/23 10:43:02;;;;;;;12.10;6.43;;;;;;;;;;5030948;28;20060;-85
2022/10/23 10:45:38;;;;;;;9.95;6.57;;;;;;;;;;5048566;28;20039;-83
2022/10/23 10:48:40;;;;;;;14.27;7.95;;;;;;;;;;5024527;28;20030;-83
2022/10/23 10:51:37;;;;;;;10.35;7.00;;;;;;;;;;5059926;28;20657;-84
2022/10/23 10:54:24;;;;;;;11.15;6.13;;;;;;;;;;5032331;28;20048;-83
2022/10/23 10:56:49;;;;;;;10.23;6.25;;;;;;;;;;5032410;28;20033;-82
2022/10/23 10:59:16;;;;;;;9.93;6.45;;;;;;;;;;5050097;28;20036;-82
2022/10/23 11:01:46;;;;;;;13.27;6.38;;;;;;;;;;5067019;28;20025;-82
2022/10/23 11:04:35;;;;;;;12.18;5.85;;;;;;;;;;5062610;28;20088;-84
2022/10/23 11:07:04;;;;;;;10.07;6.53;;;;;;;;;;5015424;28;20489;-83
2022/10/23 11:09:29;;;;;;;10.45;5.07;;;;;;;;;;5062283;28;20033;-83
2022/10/23 11:11:55;;;;;;;10.15;6.30;;;;;;;;;;5013345;28;20037;-84
2022/10/23 11:14:22;;;;;;;11.48;5.65;;;;;;;;;;5029869;28;20048;-81
2022/10/23 11:16:49;;;;;;;10.05;4.32;;;;;;;;;;5030185;28;20037;-82
2022/10/23 11:19:24;;;;;;;17.15;12.90;;;;;;;;;;5013828;28;20040;-82
2022/10/23 11:21:59;;;;;;;23.20;10.52;;;;;;;;;;5013848;28;20021;-82
2022/10/23 11:24:42;;;;;;;15.55;7.70;;;;;;;;;;5029819;28;20052;-83
2022/10/23 11:27:35;;;;;;;11.25;6.97;;;;;;;;;;5030272;28;20037;-82
2022/10/23 11:30:18;;;;;;;11.85;5.80;;;;;;;;;;5018039;28;20078;-82
2022/10/23 11:32:53;;;;;;;9.35;5.22;;;;;;;;;;5017824;28;20033;-81
2022/10/23 11:35:34;;;;;;;10.10;4.78;;;;;;;;;;5014212;28;20033;-82
2022/10/23 11:38:12;;;;;;;11.38;5.35;;;;;;;;;;5045306;28;20021;-82
2022/10/23 11:41:00;;;;;;;10.68;3.88;;;;;;;;;;5048267;28;20082;-82
2022/10/23 11:43:35;;;;;;;8.40;4.00;;;;;;;;;;5012097;28;20107;-83
2022/10/23 11:46:14;;;;;;;10.18;3.47;;;;;;;;;;5001106;28;20159;-83
2022/10/23 11:48:41;;;;;;;9.10;2.92;;;;;;;;;;5007705;28;20115;-83
2022/10/23 11:51:30;;;;;;;13.20;2.80;;;;;;;;;;5048462;28;20025;-84
2022/10/23 11:54:14;;;;;;;6.28;2.42;;;;;;;;;;5065174;28;20124;-83
2022/10/23 11:57:14;;;;;;;7.00;2.53;;;;;;;;;;5036057;28;20086;-84
2022/10/23 11:59:48;;;;;;;3.80;1.77;;;;;;;;;;5032063;28;20112;-83
2022/10/23 12:02:30;;;;;;;5.82;2.33;;;;;;;;;;5023942;28;20036;-83
2022/10/23 12:04:56;;;;;;;4.10;1.90;;;;;;;;;;5052800;28;20135;-83
2022/10/23 12:07:27;;;;;;;3.72;1.65;;;;;;;;;;5019398;28;20056;-84
2022/10/23 12:09:56;;;;;;;5.35;1.85;;;;;;;;;;5046167;28;20064;-84
2022/10/23 12:12:41;;;;;;;7.43;1.38;;;;;;;;;;5050215;28;20119;-84
2022/10/23 12:15:17;;;;;;;9.15;1.77;;;;;;;;;;5033917;28;20021;-83
2022/10/23 12:17:43;;;;;;;10.40;2.03;;;;;;;;;;5049998;28;20048;-86
2022/10/23 12:20:11;;;;;;;5.57;1.83;;;;;;;;;;5016664;28;20037;-84
2022/10/23 12:23:02;;;;;;;5.35;1.60;;;;;;;;;;5049347;28;20433;-83
2022/10/23 12:25:53;;;;;;;5.70;2.10;;;;;;;;;;5008587;28;20042;-84
2022/10/23 12:28:37;;;;;;;6.00;2.55;;;;;;;;;;5016414;28;20033;-83
2022/10/23 12:31:22;;;;;;;6.25;3.20;;;;;;;;;;5032815;28;20545;-85
2022/10/23 12:34:12;;;;;;;6.20;3.10;;;;;;;;;;5016105;28;20067;-83
2022/10/23 12:37:19;;;;;;;6.55;3.08;;;;;;;;;;5018476;28;20091;-84
2022/10/23 12:40:00;;;;;;;6.55;2.83;;;;;;;;;;5010354;28;20128;-83
2022/10/23 12:42:27;;;;;;;4.20;2.22;;;;;;;;;;5034365;28;20029;-84
2022/10/23 12:45:17;;;;;;;10.82;3.00;;;;;;;;;;5016298;28;20095;-83
2022/10/23 12:47:43;;;;;;;5.82;3.00;;;;;;;;;;5033691;28;20033;-84
2022/10/23 12:50:30;;;;;;;10.25;3.42;;;;;;;;;;5016093;28;20503;-83
2022/10/23 12:53:00;;;;;;;8.82;2.58;;;;;;;;;;5048604;28;20032;-83
2022/10/23 12:55:26;;;;;;;7.10;2.83;;;;;;;;;;5027955;28;20034;-83
2022/10/23 12:57:52;;;;;;;11.93;2.95;;;;;;;;;;5015607;28;20549;-83
2022/10/23 13:00:19;;;;;;;8.80;2.55;;;;;;;;;;5025616;28;20108;-82
2022/10/23 13:02:55;;;;;;;11.23;3.70;;;;;;;;;;5064743;28;20510;-82
2022/10/23 13:05:21;;;;;;;9.85;2.85;;;;;;;;;;5016540;28;20026;-82
2022/10/23 13:07:46;;;;;;;8.57;2.75;;;;;;;;;;5038255;28;20033;-82
2022/10/23 13:10:16;;;;;;;8.98;3.03;;;;;;;;;;5038029;28;20087;-82
2022/10/23 13:12:43;;;;;;;7.00;2.90;;;;;;;;;;5015164;28;20402;-82
2022/10/23 13:15:09;;;;;;;11.18;2.78;;;;;;;;;;5014913;28;20033;-82
2022/10/23 13:17:56;;;;;;;6.35;2.60;;;;;;;;;;5015608;28;20464;-82
2022/10/23 13:20:22;;;;;;;7.47;2.10;;;;;;;;;;5032752;28;20033;-83
2022/10/23 13:22:56;;;;;;;6.03;2.22;;;;;;;;;;5014936;28;20041;-82
2022/10/23 13:25:30;;;;;;;6.78;2.22;;;;;;;;;;5047940;28;20095;-82
2022/10/23 13:28:23;;;;;;;5.57;2.58;;;;;;;;;;5015672;28;20018;-82
2022/10/23 13:31:00;;;;;;;;;;;;;;;;;;5062285;28;20057;-82
2022/10/23 13:33:34;;;;;;;8.15;2.20;;;;;;;;;;5048216;28;20363;-82
2022/10/23 13:36:02;;;;;;;5.78;2.03;;;;;;;;;;5031986;28;20030;-83
2022/10/23 13:38:32;;;;;;;4.57;2.30;;;;;;;;;;5047970;28;20051;-82
2022/10/23 13:40:58;;;;;;;5.20;2.08;;;;;;;;;;5031220;28;20518;-82
2022/10/23 13:43:24;;;;;;;7.40;2.22;;;;;;;;;;5031726;28;20054;-82
2022/10/23 13:45:49;;;;;;;6.45;2.05;;;;;;;;;;5031057;28;20492;-82
2022/10/23 13:48:15;;;;;;;8.20;2.40;;;;;;;;;;5014811;28;20120;-83
2022/10/23 13:50:40;;;;;;;7.82;2.22;;;;;;;;;;5031358;28;20027;-83
2022/10/23 13:53:10;;;;;;;5.90;2.03;;;;;;;;;;5047690;28;20047;-82
2022/10/23 13:55:37;;;;;;;5.95;1.83;;;;;;;;;;5014208;28;20029;-82
2022/10/23 13:58:02;;;;;;;5.10;1.48;;;;;;;;;;5042429;28;20135;-82
2022/10/23 14:00:27;;;;;;;6.57;1.95;;;;;;;;;;5043252;28;20044;-83
2022/10/23 14:02:53;;;;;;;5.47;2.03;;;;;;;;;;5067084;28;20029;-82
2022/10/23 14:05:18;;;;;;;6.45;2.50;;;;;;;;;;5067321;28;20032;-82
2022/10/23 14:07:44;;;;;;;6.10;2.00;;;;;;;;;;5034336;28;20033;-82
2022/10/23 14:10:09;;;;;;;4.13;2.15;;;;;;;;;;5033947;28;20037;-82
2022/10/23 14:12:39;;;;;;;7.75;2.33;;;;;;;;;;5034120;28;20045;-82
2022/10/23 14:15:05;;;;;;;5.10;2.15;;;;;;;;;;5017617;28;20479;-82
2022/10/23 14:17:31;;;;;;;4.35;1.60;;;;;;;;;;5001275;28;20032;-82
2022/10/23 14:19:56;;;;;;;5.05;2.10;;;;;;;;;;5017715;28;20526;-82
2022/10/23 14:22:21;;;;;;;4.75;1.80;;;;;;;;;;5033982;28;20040;-82
2022/10/23 14:24:47;;;;;;;5.57;1.50;;;;;;;;;;5017243;28;20036;-82
2022/10/23 14:27:12;;;;;;;4.68;1.90;;;;;;;;;;5034124;28;20041;-82
2022/10/23 14:29:39;;;;;;;3.97;1.75;;;;;;;;;;5017497;28;20426;-83
2022/10/23 14:32:04;;;;;;;4.38;1.67;;;;;;;;;;5000969;28;20048;-82
2022/10/23 14:34:30;;;;;;;4.57;1.60;;;;;;;;;;5017236;28;20402;-83
2022/10/23 14:36:55;;;;;;;2.88;1.50;;;;;;;;;;5001205;28;20486;-83
2022/10/23 14:39:20;;;;;;;6.70;1.65;;;;;;;;;;5017507;28;20028;-82
2022/10/23 14:41:46;;;;;;;4.07;1.70;;;;;;;;;;5033846;28;20356;-83
2022/10/23 14:44:11;;;;;;;4.20;2.00;;;;;;;;;;5016953;28;20032;-83
2022/10/23 14:46:37;;;;;;;5.38;2.03;;;;;;;;;;5016875;28;20036;-83
2022/10/23 14:49:02;;;;;;;3.80;1.98;;;;;;;;;;5001066;28;20033;-83
2022/10/23 14:51:29;;;;;;;4.63;1.73;;;;;;;;;;5007390;28;20049;-83
2022/10/23 14:54:04;;;;;;;5.10;1.25;;;;;;;;;;5046379;28;20049;-82
2022/10/23 14:56:32;;;;;;;4.00;1.63;;;;;;;;;;5030441;28;20388;-83
2022/10/23 14:59:01;;;;;;;4.68;1.70;;;;;;;;;;4997797;28;20025;-83
2022/10/23 15:01:33;;;;;;;3.67;1.40;;;;;;;;;;5017232;28;20029;-83
2022/10/23 15:03:59;;;;;;;;;;;;;;;;;;5050638;28;20483;-84
2022/10/23 15:06:24;;;;;;;3.40;1.50;;;;;;;;;;5017214;28;20214;-84
2022/10/23 15:08:50;;;;;;;5.70;2.10;;;;;;;;;;5066850;28;20432;-85
2022/10/23 15:11:16;;;;;;;3.42;1.50;;;;;;;;;;5066086;28;20463;-84
2022/10/23 15:13:41;;;;;;;3.38;1.58;;;;;;;;;;5049956;28;20120;-84
2022/10/23 15:16:08;;;;;;;4.15;1.30;;;;;;;;;;5053460;28;20033;-85
2022/10/23 15:18:34;;;;;;;3.80;1.50;;;;;;;;;;5037453;28;20483;-86
2022/10/23 15:21:00;;;;;;;3.25;1.20;;;;;;;;;;5054135;28;20483;-86
2022/10/23 15:23:25;;;;;;;4.20;1.42;;;;;;;;;;5053800;28;20044;-86
2022/10/23 15:25:55;;;;;;;5.28;1.17;;;;;;;;;;5053536;28;20024;-86
2022/10/23 15:28:22;;;;;;;2.53;1.23;;;;;;;;;;5037267;28;20075;-85
2022/10/23 15:30:47;;;;;;;3.38;1.95;;;;;;;;;;5053763;28;20040;-86
2022/10/23 15:33:13;;;;;;;2.95;1.42;;;;;;;;;;5054020;28;20514;-86
2022/10/23 15:35:38;;;;;;;3.40;1.33;;;;;;;;;;5053897;28;20395;-86
2022/10/23 15:38:03;;;;;;;3.35;1.73;;;;;;;;;;5053912;28;20048;-85
2022/10/23 15:40:29;;;;;;;5.43;1.40;;;;;;;;;;5053608;28;20029;-86
2022/10/23 15:42:54;;;;;;;2.97;1.15;;;;;;;;;;5053564;28;20040;-86
2022/10/23 15:45:20;;;;;;;3.00;1.35;;;;;;;;;;5053352;28;20033;-86
2022/10/23 15:47:45;;;;;;;3.95;1.90;;;;;;;;;;5033456;28;20388;-87
2022/10/23 15:50:11;;;;;;;4.13;1.60;;;;;;;;;;5033814;28;20105;-85
2022/10/23 15:52:36;;;;;;;4.63;1.75;;;;;;;;;;5049805;28;20496;-86
2022/10/23 15:55:01;;;;;;;4.30;1.70;;;;;;;;;;5033023;28;20037;-86
2022/10/23 15:57:27;;;;;;;5.20;1.88;;;;;;;;;;5016711;28;20033;-87
2022/10/23 15:59:52;;;;;;;6.90;1.85;;;;;;;;;;5040600;28;20029;-87
2022/10/23 16:02:18;;;;;;;12.02;2.55;;;;;;;;;;5003994;28;20399;-86
2022/10/23 16:04:43;;;;;;;13.30;2.85;;;;;;;;;;5070022;28;20044;-88
2022/10/23 16:07:09;;;;;;;6.78;2.17;;;;;;;;;;5053137;28;20036;-88
2022/10/23 16:09:34;;;;;;;7.50;2.92;;;;;;;;;;5000496;28;20025;-87
2022/10/23 16:11:59;;;;;;;9.05;2.78;;;;;;;;;;5033056;28;20037;-87
2022/10/23 16:14:25;;;;;;;8.90;3.28;;;;;;;;;;5032924;28;20060;-87
2022/10/23 16:16:51;;;;;;;8.25;2.42;;;;;;;;;;5050028;28;20040;-87
2022/10/23 16:19:17;;;;;;;15.02;3.42;;;;;;;;;;5049802;28;20038;-87
2022/10/23 16:21:42;;;;;;;13.45;3.03;;;;;;;;;;5050120;28;20079;-87
2022/10/23 16:24:08;;;;;;;9.68;2.80;;;;;;;;;;4999946;28;20043;-87
2022/10/23 16:26:34;;;;;;;11.27;2.78;;;;;;;;;;5032852;28;20365;-87
2022/10/23 16:29:02;;;;;;;12.20;3.47;;;;;;;;;;5032839;28;20030;-87
2022/10/23 16:31:28;;;;;;;13.82;3.08;;;;;;;;;;5033817;28;20021;-87
2022/10/23 16:33:55;;;;;;;7.78;2.72;;;;;;;;;;5032845;28;20396;-87
2022/10/23 16:36:20;;;;;;;7.38;2.00;;;;;;;;;;5049572;28;20484;-87
2022/10/23 16:38:46;;;;;;;11.52;3.05;;;;;;;;;;4999985;28;20060;-87
2022/10/23 16:41:11;;;;;;;10.75;2.95;;;;;;;;;;5055595;28;20143;-87
2022/10/23 16:43:37;;;;;;;10.23;3.08;;;;;;;;;;5069021;28;20036;-87
2022/10/23 16:46:04;;;;;;;15.43;3.17;;;;;;;;;;5052955;28;20039;-87
2022/10/23 16:48:29;;;;;;;12.40;3.10;;;;;;;;;;5052575;28;20064;-86
2022/10/23 16:50:57;;;;;;;13.63;3.08;;;;;;;;;;5004068;28;20395;-88
2022/10/23 16:53:27;;;;;;;23.40;3.67;;;;;;;;;;5004589;28;20033;-87
2022/10/23 16:55:53;;;;;;;18.00;4.80;;;;;;;;;;5004842;28;20040;-88
2022/10/23 16:58:19;;;;;;;16.27;3.20;;;;;;;;;;5003629;28;20029;-87
2022/10/23 17:00:44;;;;;;;19.15;3.80;;;;;;;;;;5003400;28;20120;-89
2022/10/23 17:03:10;;;;;;;16.52;3.42;;;;;;;;;;5036591;28;20032;-88
2022/10/23 17:05:35;;;;;;;15.02;3.70;;;;;;;;;;5036175;28;20039;-87
2022/10/23 17:08:00;;;;;;;12.15;3.05;;;;;;;;;;5036115;28;20403;-86
2022/10/23 17:10:26;;;;;;;15.32;3.90;;;;;;;;;;5018530;28;20028;-87
2022/10/23 17:12:51;;;;;;;9.68;2.95;;;;;;;;;;5001398;28;20036;-87
2022/10/23 17:15:18;;;;;;;13.52;5.57;;;;;;;;;;5050483;28;20032;-86
2022/10/23 17:17:44;;;;;;;13.52;6.50;;;;;;;;;;5050354;28;20037;-85
2022/10/23 17:20:10;;;;;;;13.98;5.10;;;;;;;;;;5000990;28;20115;-86
2022/10/23 17:22:37;;;;;;;15.20;5.22;;;;;;;;;;5033647;28;20029;-86
2022/10/23 17:25:03;;;;;;;14.73;5.43;;;;;;;;;;5050711;28;20033;-86
2022/10/23 17:27:29;;;;;;;20.92;6.95;;;;;;;;;;5034662;28;20528;-85
2022/10/23 17:29:54;;;;;;;13.13;6.10;;;;;;;;;;5018051;28;20041;-86
2022/10/23 17:32:20;;;;;;;14.18;5.78;;;;;;;;;;5018745;28;20082;-85
2022/10/23 17:34:45;;;;;;;14.95;5.40;;;;;;;;;;5067849;28;20147;-86
2022/10/23 17:37:13;;;;;;;21.85;5.65;;;;;;;;;;5067357;28;20475;-86
2022/10/23 17:39:38;;;;;;;13.95;5.25;;;;;;;;;;5051455;28;20982;-86
2022/10/23 17:42:03;;;;;;;12.70;5.28;;;;;;;;;;5002003;28;20123;-87
2022/10/23 17:44:29;;;;;;;12.35;5.15;;;;;;;;;;5064566;28;20082;-88
2022/10/23 17:46:54;;;;;;;14.90;4.90;;;;;;;;;;5048952;28;20036;-88
2022/10/23 17:49:20;;;;;;;16.52;4.72;;;;;;;;;;5048771;28;20048;-89
2022/10/23 17:51:52;;;;;;;13.70;4.85;;;;;;;;;;5032179;28;20033;-89
2022/10/23 17:54:17;;;;;;;12.87;4.40;;;;;;;;;;5015315;28;20124;-89
2022/10/23 17:56:42;;;;;;;15.05;5.13;;;;;;;;;;5048402;28;20114;-88
2022/10/23 17:59:29;;;;;;;18.20;5.70;;;;;;;;;;5029768;28;20032;-92
2022/10/23 18:01:59;;;;;;;17.17;4.82;;;;;;;;;;5019115;28;20076;-91
2022/10/23 18:04:27;;;;;;;18.15;5.50;;;;;;;;;;5060720;28;20119;-91
2022/10/23 18:06:52;;;;;;;14.90;4.50;;;;;;;;;;5029532;28;20029;-90
2022/10/23 18:09:19;;;;;;;21.20;5.18;;;;;;;;;;5030212;28;20064;-92
2022/10/23 18:11:45;;;;;;;15.48;4.07;;;;;;;;;;5062378;28;20045;-93
2022/10/23 18:14:10;;;;;;;11.13;4.22;;;;;;;;;;5025730;28;20026;-89
2022/10/23 18:16:39;;;;;;;13.15;4.18;;;;;;;;;;5044380;28;20120;-89
2022/10/23 18:19:04;;;;;;;16.75;5.40;;;;;;;;;;5046311;28;20061;-89
2022/10/23 18:21:30;;;;;;;11.07;4.60;;;;;;;;;;5059262;28;20064;-88
2022/10/23 18:23:58;;;;;;;13.60;3.80;;;;;;;;;;5017385;28;20043;-88
2022/10/23 18:26:27;;;;;;;14.13;3.88;;;;;;;;;;5017568;28;20125;-88
2022/10/23 18:28:57;;;;;;;9.38;3.70;;;;;;;;;;5014693;28;20036;-87
2022/10/23 18:31:28;;;;;;;11.15;3.63;;;;;;;;;;5031718;28;20499;-87
2022/10/23 18:34:00;;;;;;;9.57;3.60;;;;;;;;;;5015186;28;20492;-89
2022/10/23 18:36:27;;;;;;;8.10;3.15;;;;;;;;;;5064692;28;20033;-87
2022/10/23 18:38:53;;;;;;;13.48;4.28;;;;;;;;;;5038009;28;20123;-88
2022/10/23 18:41:21;;;;;;;9.10;3.70;;;;;;;;;;5001394;28;20090;-87
2022/10/23 18:43:50;;;;;;;6.82;2.83;;;;;;;;;;5002329;28;20033;-87
2022/10/23 18:46:16;;;;;;;8.07;3.00;;;;;;;;;;5034242;28;20391;-88
2022/10/23 18:48:44;;;;;;;11.45;4.28;;;;;;;;;;5018124;28;20052;-87
2022/10/23 18:51:24;;;;;;;10.38;3.63;;;;;;;;;;5001382;28;20110;-87
2022/10/23 18:53:50;;;;;;;8.23;3.13;;;;;;;;;;5001043;28;20037;-87
2022/10/23 18:56:22;;;;;;;7.22;2.50;;;;;;;;;;5001225;28;20033;-86
2022/10/23 18:58:49;;;;;;;8.85;3.10;;;;;;;;;;5002903;28;20029;-86
2022/10/23 19:01:15;;;;;;;7.78;3.03;;;;;;;;;;5020277;28;20025;-87
2022/10/23 19:03:42;;;;;;;11.52;3.83;;;;;;;;;;5054390;28;20020;-87
2022/10/23 19:06:09;;;;;;;6.05;2.58;;;;;;;;;;5054712;28;20035;-87
2022/10/23 19:08:36;;;;;;;7.82;2.95;;;;;;;;;;5020568;28;20025;-87
2022/10/23 19:11:05;;;;;;;10.75;3.47;;;;;;;;;;5054289;28;20067;-87
2022/10/23 19:13:35;;;;;;;6.38;2.40;;;;;;;;;;5053788;28;20508;-86
2022/10/23 19:16:34;;;;;;;8.85;2.78;;;;;;;;;;5054809;28;20501;-87
2022/10/23 19:19:03;;;;;;;7.03;3.28;;;;;;;;;;5087516;28;20032;-88
2022/10/23 19:21:32;;;;;;;7.88;2.80;;;;;;;;;;5038121;28;20033;-88
2022/10/23 19:24:05;;;;;;;6.57;2.80;;;;;;;;;;5053921;28;20044;-89
2022/10/23 19:26:32;;;;;;;8.35;2.55;;;;;;;;;;5055011;28;20024;-88
2022/10/23 19:29:01;;;;;;;8.77;3.10;;;;;;;;;;5021308;28;20044;-93
2022/10/23 19:31:27;;;;;;;6.30;2.60;;;;;;;;;;5067968;28;20509;-92
2022/10/23 19:33:52;;;;;;;10.32;3.90;;;;;;;;;;5067603;28;20029;-91
2022/10/23 19:36:21;;;;;;;6.53;3.17;;;;;;;;;;5067487;28;20049;-90
2022/10/23 19:38:47;;;;;;;9.63;4.05;;;;;;;;;;5067937;28;20021;-90
2022/10/23 19:41:17;;;;;;;9.27;4.30;;;;;;;;;;5067669;28;20039;-89
2022/10/23 19:43:43;;;;;;;6.97;2.95;;;;;;;;;;5067975;28;20387;-89
2022/10/23 19:46:08;;;;;;;8.00;3.78;;;;;;;;;;5067575;28;20047;-89
2022/10/23 19:48:36;;;;;;;8.70;3.33;;;;;;;;;;5067359;28;20032;-89
2022/10/23 19:51:01;;;;;;;7.97;3.17;;;;;;;;;;5067206;28;20163;-89
2022/10/23 19:53:27;;;;;;;8.93;3.42;;;;;;;;;;5050818;28;20120;-89
2022/10/23 19:56:03;;;;;;;9.10;3.53;;;;;;;;;;5067404;28;20048;-90
2022/10/23 19:58:29;;;;;;;7.07;3.35;;;;;;;;;;5034569;28;20043;-89
2022/10/23 20:00:54;;;;;;;8.95;3.78;;;;;;;;;;5068580;28;20036;-88
2022/10/23 20:03:20;;;;;;;6.75;2.95;;;;;;;;;;5071005;28;20394;-88
2022/10/23 20:05:45;;;;;;;6.10;3.33;;;;;;;;;;5070861;28;20063;-90
2022/10/23 20:08:12;;;;;;;7.22;3.10;;;;;;;;;;5054567;28;20509;-89
2022/10/23 20:10:41;;;;;;;5.55;3.20;;;;;;;;;;5001509;28;20033;-89
2022/10/23 20:13:08;;;;;;;8.43;3.28;;;;;;;;;;5034282;28;20456;-89
2022/10/23 20:15:37;;;;;;;6.00;2.70;;;;;;;;;;5034249;28;20040;-90
2022/10/23 20:18:02;;;;;;;7.50;3.20;;;;;;;;;;5034388;28;20475;-89
2022/10/23 20:20:31;;;;;;;7.68;3.08;;;;;;;;;;5001298;28;20111;-89
2022/10/23 20:22:56;;;;;;;9.55;3.42;;;;;;;;;;5017294;28;20044;-88
2022/10/23 20:25:22;;;;;;;7.72;3.00;;;;;;;;;;5017274;28;20033;-89
2022/10/23 20:27:48;;;;;;;7.25;3.10;;;;;;;;;;5034145;28;20033;-89
2022/10/23 20:30:17;;;;;;;6.45;2.92;;;;;;;;;;5017461;28;20041;-89
2022/10/23 20:32:42;;;;;;;4.97;2.65;;;;;;;;;;5020015;28;20033;-88
2022/10/23 20:35:08;;;;;;;10.57;2.60;;;;;;;;;;5050400;28;20082;-89
2022/10/23 20:37:35;;;;;;;5.90;2.90;;;;;;;;;;5034414;28;20033;-89
2022/10/23 20:40:03;;;;;;;5.47;3.05;;;;;;;;;;5050406;28;20036;-89
2022/10/23 20:42:30;;;;;;;7.28;3.10;;;;;;;;;;5067034;28;20036;-89
2022/10/23 20:44:58;;;;;;;8.77;2.90;;;;;;;;;;5033940;28;20033;-89
2022/10/23 20:47:30;;;;;;;7.53;3.03;;;;;;;;;;5050682;28;20044;-89
2022/10/23 20:49:58;;;;;;;10.00;2.90;;;;;;;;;;5050441;28;20360;-88
2022/10/23 20:52:25;;;;;;;7.43;2.80;;;;;;;;;;5050363;28;20030;-88
2022/10/23 20:54:52;;;;;;;5.53;2.20;;;;;;;;;;5033351;28;20044;-88
2022/10/23 20:57:21;;;;;;;7.35;2.50;;;;;;;;;;5033156;28;20040;-88
2022/10/23 20:59:48;;;;;;;8.43;3.13;;;;;;;;;;5060338;28;20033;-89
2022/10/23 21:02:13;;;;;;;7.78;2.53;;;;;;;;;;5023531;28;20032;-89
2022/10/23 21:04:40;;;;;;;6.18;2.38;;;;;;;;;;5039838;28;20037;-88
2022/10/23 21:07:05;;;;;;;6.50;2.58;;;;;;;;;;5023496;28;20033;-88
2022/10/23 21:09:32;;;;;;;6.85;2.10;;;;;;;;;;5056548;28;20031;-88
2022/10/23 21:11:57;;;;;;;4.40;1.95;;;;;;;;;;5056245;28;20024;-88
2022/10/23 21:14:23;;;;;;;6.15;2.58;;;;;;;;;;5062242;28;20033;-87
2022/10/23 21:16:50;;;;;;;4.50;2.22;;;;;;;;;;5020091;28;20110;-89
2022/10/23 21:19:18;;;;;;;6.63;2.47;;;;;;;;;;5019693;28;20036;-89
2022/10/23 21:21:45;;;;;;;6.70;2.97;;;;;;;;;;5020127;28;20805;-88
2022/10/23 21:24:14;;;;;;;6.35;1.90;;;;;;;;;;5019501;28;20035;-89
2022/10/23 21:26:41;;;;;;;4.70;1.90;;;;;;;;;;5003650;28;20033;-89
2022/10/23 21:29:08;;;;;;;4.28;2.20;;;;;;;;;;5003766;28;20379;-89
2022/10/23 21:31:34;;;;;;;4.75;2.38;;;;;;;;;;5005375;28;20094;-91
2022/10/23 21:34:09;;;;;;;5.32;1.98;;;;;;;;;;5011423;28;20399;-89
2022/10/23 21:36:35;;;;;;;5.15;2.35;;;;;;;;;;5007554;28;20033;-87
2022/10/23 21:39:01;;;;;;;4.78;1.85;;;;;;;;;;5010147;28;20117;-90
2022/10/23 21:41:30;;;;;;;4.45;1.88;;;;;;;;;;5026292;28;20033;-88
2022/10/23 21:44:02;;;;;;;4.70;1.90;;;;;;;;;;5022819;28;20036;-89
2022/10/23 21:46:32;;;;;;;7.55;2.60;;;;;;;;;;5019234;28;20040;-88
2022/10/23 21:48:58;;;;;;;6.80;2.15;;;;;;;;;;5003202;28;20025;-89
2022/10/23 21:51:24;;;;;;;6.80;2.53;;;;;;;;;;5003088;28;20037;-89